EGOP

Pembrey Sands Airport

Pembrey Sands, United Kingdom
METAR EGOP 151550Z AUTO 20024KT 4000 // BKN007/// BKN014/// 18/17 Q1015
Observed Flight Rules
Aug-15 @ 15:50 UTC (an hour ago) Instrument Flight Rules
Wind Visibility Clouds
200° at 24 knots 4,007 meters
  • Broken at 700' AGL
  • Broken at 1,400' AGL
Temperatures Readings
Current 18°C / 64°F
Dewpoint 17°C / 63°F
Humidity 94%
Altimeter 29.97" Hg
Pressure 1015 hPa
Elevation 6
METAR EGOP 151550Z AUTO 20024KT 4000 // BKN007/// BKN014/// 18/17 Q1015
Observed Flight Rules
Aug-15 @ 15:50 UTC
(an hour ago)
IFR
Wind Visibility
200° at 24 knots 4,007 meters
Clouds
  • Broken at 700' AGL
  • Broken at 1,400' AGL
Temperature Dewpoint
18°C / 64°F 17°C / 63°F
Humidity Altimeter Pressure
94% 29.97" Hg 1015 hPa